createdAt,value
2018-07-19T00:01:49.272Z,20.00
2018-07-19T00:06:48.460Z,20.20
2018-07-19T00:09:18.371Z,20.30
2018-07-19T00:11:47.908Z,20.30
2018-07-19T00:14:17.551Z,20.30
2018-07-19T00:16:47.432Z,20.30
2018-07-19T00:19:17.214Z,20.40
2018-07-19T00:21:46.924Z,20.50
2018-07-19T00:24:16.636Z,20.50
2018-07-19T00:26:46.273Z,20.40
2018-07-19T00:29:16.049Z,20.30
2018-07-19T00:31:45.763Z,20.20
2018-07-19T00:34:15.371Z,20.40
2018-07-19T00:36:45.089Z,20.40
2018-07-19T00:39:14.816Z,20.40
2018-07-19T00:41:45.533Z,20.20
2018-07-19T00:44:16.683Z,19.90
2018-07-19T00:49:16.372Z,19.50
2018-07-19T00:51:46.004Z,19.50
2018-07-19T00:54:16.021Z,19.60
2018-07-19T00:56:45.631Z,19.90
2018-07-19T00:59:15.239Z,20.10
2018-07-19T01:01:44.980Z,20.20
2018-07-19T01:04:14.484Z,20.20
2018-07-19T01:06:44.090Z,20.20
2018-07-19T01:09:13.907Z,20.00
2018-07-19T01:11:43.407Z,20.10
2018-07-19T01:14:12.984Z,20.20
2018-07-19T01:16:42.699Z,20.30
2018-07-19T01:19:12.400Z,20.40
2018-07-19T01:21:42.021Z,20.40
2018-07-19T01:24:11.622Z,20.40
2018-07-19T01:26:41.233Z,20.30
2018-07-19T01:29:10.968Z,20.10
2018-07-19T01:31:40.653Z,19.90
2018-07-19T01:34:10.357Z,19.80
2018-07-19T01:36:39.994Z,19.90
2018-07-19T01:39:11.419Z,19.90
2018-07-19T01:42:45.132Z,19.80
2018-07-19T01:45:15.049Z,19.70
2018-07-19T01:47:44.651Z,19.50
2018-07-19T01:50:14.461Z,19.50
2018-07-19T01:52:44.098Z,19.50
2018-07-19T01:55:13.881Z,19.30
2018-07-19T01:57:45.545Z,19.30
2018-07-19T02:00:15.133Z,19.10
2018-07-19T02:02:44.892Z,19.20
2018-07-19T02:05:14.458Z,19.20
2018-07-19T02:07:44.066Z,19.10
2018-07-19T02:10:13.908Z,19.10
2018-07-19T02:12:43.496Z,19.20
2018-07-19T02:15:13.307Z,19.20
2018-07-19T02:17:42.939Z,19.20
2018-07-19T02:22:41.749Z,19.10
2018-07-19T02:25:11.528Z,19.20
2018-07-19T02:27:41.240Z,18.90
2018-07-19T02:30:10.846Z,18.80
2018-07-19T02:32:40.454Z,18.80
2018-07-19T02:35:10.095Z,18.70
2018-07-19T02:37:39.703Z,18.60
2018-07-19T02:40:09.412Z,18.60
2018-07-19T02:42:39.235Z,18.50
2018-07-19T02:45:09.012Z,18.40
2018-07-19T02:47:38.826Z,18.50
2018-07-19T02:50:08.657Z,18.50
2018-07-19T02:52:38.160Z,18.40
2018-07-19T02:55:07.774Z,18.40
2018-07-19T03:00:06.854Z,18.10
2018-07-19T03:02:36.668Z,18.10
2018-07-19T03:05:06.322Z,18.10
2018-07-19T03:07:35.986Z,18.00
2018-07-19T03:10:05.795Z,18.00
2018-07-19T03:12:35.433Z,18.10
2018-07-19T03:15:05.243Z,17.90
2018-07-19T03:17:34.932Z,17.90
2018-07-19T03:20:04.670Z,17.70
2018-07-19T03:22:34.552Z,17.70
2018-07-19T03:25:04.363Z,17.60
2018-07-19T03:27:34.073Z,17.60
2018-07-19T03:30:03.715Z,17.70
2018-07-19T03:32:33.428Z,17.70
2018-07-19T03:35:02.998Z,17.80
2018-07-19T03:37:32.607Z,17.80
2018-07-19T03:40:03.249Z,18.10
2018-07-19T03:42:33.051Z,18.70
2018-07-19T03:45:02.668Z,18.80
2018-07-19T03:47:32.295Z,18.70
2018-07-19T03:50:02.081Z,18.70
2018-07-19T03:52:31.609Z,18.80
2018-07-19T03:55:01.396Z,19.00
2018-07-19T03:57:31.004Z,18.80
2018-07-19T04:00:00.714Z,18.90
2018-07-19T04:02:30.356Z,18.80
2018-07-19T04:05:00.032Z,18.50
2018-07-19T04:07:29.942Z,18.30
2018-07-19T04:09:59.659Z,18.40
2018-07-19T04:12:29.190Z,18.60
2018-07-19T04:14:58.796Z,18.80
2018-07-19T04:17:28.308Z,19.10
2018-07-19T04:19:59.312Z,19.20
2018-07-19T04:22:29.164Z,19.20
2018-07-19T04:24:58.927Z,19.20
2018-07-19T04:27:28.860Z,19.00
2018-07-19T04:29:58.493Z,19.00
2018-07-19T04:32:28.052Z,19.10
2018-07-19T04:34:58.063Z,19.20
2018-07-19T04:37:27.701Z,19.00
2018-07-19T04:39:57.302Z,19.00
2018-07-19T04:42:27.013Z,19.30
2018-07-19T04:44:56.614Z,19.50
2018-07-19T04:47:26.158Z,19.40
2018-07-19T04:49:55.859Z,19.50
2018-07-19T04:52:25.960Z,19.40
2018-07-19T04:54:55.672Z,19.50
2018-07-19T04:57:25.724Z,19.40
2018-07-19T04:59:55.440Z,19.50
2018-07-19T05:02:25.312Z,19.60
2018-07-19T05:04:54.949Z,19.70
2018-07-19T05:07:24.928Z,19.70
2018-07-19T05:09:54.872Z,19.70
2018-07-19T05:12:24.491Z,19.90
2018-07-19T05:17:23.263Z,19.90
2018-07-19T05:19:52.900Z,20.00
2018-07-19T05:22:22.510Z,20.10
2018-07-19T05:24:52.389Z,20.20
2018-07-19T05:27:22.276Z,20.40
2018-07-19T05:29:53.048Z,20.60
2018-07-19T05:32:22.656Z,20.70
2018-07-19T05:34:52.356Z,20.70
2018-07-19T05:37:21.977Z,20.80
2018-07-19T05:39:51.912Z,20.90
2018-07-19T05:42:21.612Z,21.10
2018-07-19T05:44:51.333Z,21.20
2018-07-19T05:47:21.010Z,21.30
2018-07-19T05:49:50.616Z,21.40
2018-07-19T05:52:20.043Z,21.50
2018-07-19T05:54:49.943Z,21.60
2018-07-19T05:57:19.987Z,21.60
2018-07-19T05:59:49.772Z,21.60
2018-07-19T06:02:19.520Z,21.70
2018-07-19T06:04:49.007Z,21.80
2018-07-19T06:07:19.406Z,21.90
2018-07-19T06:09:49.570Z,22.00
2018-07-19T06:12:19.669Z,22.30
2018-07-19T06:14:49.423Z,22.40
2018-07-19T06:17:18.994Z,22.30
2018-07-19T06:19:48.851Z,22.30
2018-07-19T06:22:18.900Z,22.30
2018-07-19T06:24:48.721Z,22.30
2018-07-19T06:27:18.555Z,22.50
2018-07-19T06:29:48.383Z,22.30
2018-07-19T06:32:17.936Z,22.20
2018-07-19T06:34:47.832Z,22.30
2018-07-19T06:37:17.564Z,22.40
2018-07-19T06:39:47.172Z,22.60
2018-07-19T06:42:16.809Z,22.90
2018-07-19T06:44:46.741Z,23.00
2018-07-19T06:47:16.667Z,23.10
2018-07-19T06:49:46.503Z,23.10
2018-07-19T06:52:17.893Z,23.00
2018-07-19T06:57:17.164Z,23.00
2018-07-19T06:59:47.330Z,23.00
2018-07-19T07:02:17.503Z,23.10
2018-07-19T07:04:47.189Z,23.10
2018-07-19T07:09:46.069Z,23.40
2018-07-19T07:12:15.961Z,23.50
2018-07-19T07:14:45.784Z,23.50
2018-07-19T07:17:15.466Z,23.10
2018-07-19T07:19:45.498Z,23.20
2018-07-19T07:22:15.194Z,23.40
2018-07-19T07:24:45.380Z,23.60
2018-07-19T07:27:15.154Z,23.70
2018-07-19T07:29:44.880Z,23.60
2018-07-19T07:32:14.657Z,23.40
2018-07-19T07:34:45.297Z,23.30
2018-07-19T07:37:15.362Z,23.20
2018-07-19T07:39:45.750Z,23.50
2018-07-19T07:42:15.867Z,23.50
2018-07-19T07:44:45.906Z,23.60
2018-07-19T07:47:15.276Z,23.60
2018-07-19T07:49:44.688Z,23.80
2018-07-19T07:52:14.124Z,23.90
2018-07-19T07:54:43.812Z,24.00
2018-07-19T07:57:13.221Z,24.20
2018-07-19T07:59:42.801Z,24.30
2018-07-19T08:02:12.242Z,24.50
2018-07-19T08:04:41.677Z,24.80
2018-07-19T08:07:11.049Z,24.60
2018-07-19T08:09:40.482Z,24.80
2018-07-19T08:12:09.896Z,24.90
2018-07-19T08:14:39.341Z,24.80
2018-07-19T08:17:08.723Z,25.30
2018-07-19T08:19:38.154Z,25.20
2018-07-19T08:22:07.553Z,25.30
2018-07-19T08:24:36.925Z,25.40
2018-07-19T08:27:06.337Z,25.30
2018-07-19T08:29:35.693Z,25.50
2018-07-19T08:32:05.053Z,25.70
2018-07-19T08:34:34.465Z,25.70
2018-07-19T08:37:04.059Z,25.60
2018-07-19T08:39:34.490Z,25.90
2018-07-19T08:42:03.932Z,26.10
2018-07-19T08:44:33.313Z,26.10
2018-07-19T08:47:02.641Z,26.20
2018-07-19T08:49:32.056Z,26.30
2018-07-19T08:52:01.444Z,26.50
2018-07-19T08:54:30.944Z,26.50
2018-07-19T08:57:00.365Z,26.70
2018-07-19T08:59:29.805Z,26.90
2018-07-19T09:01:59.149Z,26.90
2018-07-19T09:04:28.982Z,27.00
2018-07-19T09:06:58.395Z,26.80
2018-07-19T09:09:27.870Z,26.50
2018-07-19T09:11:57.205Z,26.80
2018-07-19T09:14:26.531Z,27.10
2018-07-19T09:16:56.076Z,27.40
2018-07-19T09:19:25.596Z,27.50
2018-07-19T09:21:54.926Z,27.40
2018-07-19T09:24:24.272Z,27.70
2018-07-19T09:26:53.965Z,27.90
2018-07-19T09:29:23.436Z,27.80
2018-07-19T09:31:52.786Z,28.00
2018-07-19T09:34:22.111Z,28.10
2018-07-19T09:36:51.512Z,28.00
2018-07-19T09:39:21.108Z,28.10
2018-07-19T09:41:50.656Z,28.50
2018-07-19T09:44:20.228Z,28.40
2018-07-19T09:46:49.556Z,28.30
2018-07-19T09:49:18.987Z,28.30
2018-07-19T09:51:48.287Z,28.20
2018-07-19T09:54:28.363Z,28.20
2018-07-19T09:56:58.077Z,28.40
2018-07-19T09:59:27.679Z,28.50
2018-07-19T10:01:57.055Z,28.60
2018-07-19T10:04:27.036Z,28.90
2018-07-19T10:06:56.412Z,29.20
2018-07-19T10:09:25.862Z,29.40
2018-07-19T10:11:55.418Z,29.40
2018-07-19T10:14:24.724Z,29.50
2018-07-19T10:16:54.019Z,29.50
2018-07-19T10:19:23.416Z,29.40
2018-07-19T10:21:52.997Z,29.70
2018-07-19T10:24:22.811Z,29.70
2018-07-19T10:26:52.194Z,29.80
2018-07-19T10:29:21.749Z,29.80
2018-07-19T10:31:51.199Z,29.80
2018-07-19T10:34:20.628Z,30.00
2018-07-19T10:36:50.015Z,30.10
2018-07-19T10:39:19.484Z,30.30
2018-07-19T10:41:49.039Z,30.40
2018-07-19T10:44:18.467Z,30.40
2018-07-19T10:46:47.864Z,30.70
2018-07-19T10:49:17.345Z,30.90
2018-07-19T10:51:46.729Z,30.50
2018-07-19T10:54:16.134Z,30.60
2018-07-19T10:56:45.447Z,30.60
2018-07-19T10:59:14.861Z,30.80
2018-07-19T11:01:44.183Z,31.30
2018-07-19T11:04:13.529Z,30.80
2018-07-19T11:06:42.883Z,30.80
2018-07-19T11:09:12.236Z,30.90
2018-07-19T11:11:41.500Z,31.50
2018-07-19T11:14:10.860Z,31.70
2018-07-19T11:16:40.219Z,31.20
2018-07-19T11:19:09.693Z,32.00
2018-07-19T11:21:39.060Z,32.00
2018-07-19T11:24:08.349Z,32.10
2018-07-19T11:26:37.677Z,31.90
2018-07-19T11:29:07.044Z,32.20
2018-07-19T11:31:36.342Z,32.50
2018-07-19T11:34:06.075Z,32.90
2018-07-19T11:36:35.409Z,32.90
2018-07-19T11:39:06.777Z,32.80
2018-07-19T11:41:36.619Z,32.60
2018-07-19T11:44:06.295Z,32.60
2018-07-19T11:46:35.665Z,32.50
2018-07-19T11:49:05.069Z,32.10
2018-07-19T11:51:34.432Z,32.40
2018-07-19T11:54:03.824Z,32.00
2018-07-19T11:56:33.198Z,32.30
2018-07-19T11:59:02.590Z,32.50
2018-07-19T12:01:31.985Z,33.00
2018-07-19T12:04:01.403Z,32.60
2018-07-19T12:06:30.732Z,32.70
2018-07-19T12:09:00.217Z,32.60
2018-07-19T12:11:29.633Z,32.40
2018-07-19T12:13:58.947Z,31.90
2018-07-19T12:16:28.293Z,32.10
2018-07-19T12:18:57.714Z,32.50
2018-07-19T12:21:27.300Z,32.30
2018-07-19T12:23:56.960Z,33.10
2018-07-19T12:26:26.244Z,33.60
2018-07-19T12:28:56.648Z,33.60
2018-07-19T12:31:25.989Z,33.90
2018-07-19T12:33:55.339Z,33.80
2018-07-19T12:36:24.804Z,34.00
2018-07-19T12:38:54.260Z,33.90
2018-07-19T12:41:23.595Z,33.80
2018-07-19T12:43:53.016Z,34.00
2018-07-19T12:46:22.392Z,34.10
2018-07-19T12:48:51.857Z,34.60
2018-07-19T12:51:21.208Z,34.50
2018-07-19T12:53:50.572Z,34.60
2018-07-19T12:56:19.929Z,34.60
2018-07-19T12:58:49.395Z,34.40
2018-07-19T13:01:18.783Z,34.60
2018-07-19T13:03:48.124Z,34.60
2018-07-19T13:06:17.453Z,34.70
2018-07-19T13:08:47.148Z,34.90
2018-07-19T13:11:16.478Z,35.70
2018-07-19T13:13:45.820Z,35.80
2018-07-19T13:16:15.663Z,35.80
2018-07-19T13:18:45.133Z,35.90
2018-07-19T13:21:14.568Z,35.50
2018-07-19T13:23:44.195Z,35.20
2018-07-19T13:26:13.673Z,35.40
2018-07-19T13:28:43.087Z,35.60
2018-07-19T13:31:12.424Z,35.60
2018-07-19T13:33:41.772Z,35.60
2018-07-19T13:36:11.209Z,35.50
2018-07-19T13:38:40.654Z,35.30
2018-07-19T13:41:10.429Z,35.60
2018-07-19T13:43:39.831Z,36.50
2018-07-19T13:46:09.230Z,36.30
2018-07-19T13:48:38.728Z,36.00
2018-07-19T13:51:08.157Z,36.30
2018-07-19T13:53:48.413Z,37.00
2018-07-19T13:56:17.904Z,37.30
2018-07-19T13:58:47.361Z,36.60
2018-07-19T14:01:17.038Z,36.80
2018-07-19T14:03:46.381Z,36.90
2018-07-19T14:08:44.676Z,37.90
2018-07-19T14:11:14.358Z,38.00
2018-07-19T14:13:43.761Z,37.60
2018-07-19T14:16:13.205Z,36.80
2018-07-19T14:18:42.688Z,36.80
2018-07-19T14:21:12.067Z,37.50
2018-07-19T14:23:41.415Z,37.60
2018-07-19T14:26:10.677Z,37.60
2018-07-19T14:28:40.199Z,37.10
2018-07-19T14:31:09.519Z,37.50
2018-07-19T14:33:38.928Z,37.20
2018-07-19T14:36:09.219Z,37.20
2018-07-19T14:38:38.628Z,36.50
2018-07-19T14:41:07.939Z,37.40
2018-07-19T14:43:37.590Z,38.40
2018-07-19T14:46:06.912Z,38.30
2018-07-19T14:48:36.459Z,38.10
2018-07-19T14:51:05.816Z,37.50
2018-07-19T14:53:35.206Z,37.60
2018-07-19T14:56:04.609Z,37.90
2018-07-19T14:58:34.035Z,38.00
2018-07-19T15:01:03.447Z,38.40
2018-07-19T15:03:32.788Z,38.50
2018-07-19T15:06:02.063Z,38.90
2018-07-19T15:08:31.396Z,38.90
2018-07-19T15:11:00.735Z,38.60
2018-07-19T15:13:30.127Z,38.00
2018-07-19T15:15:59.682Z,37.70
2018-07-19T15:18:29.024Z,37.70
2018-07-19T15:20:58.372Z,37.60
2018-07-19T15:23:27.731Z,38.40
2018-07-19T15:25:57.590Z,39.20
2018-07-19T15:28:26.964Z,39.20
2018-07-19T15:30:56.358Z,38.70
2018-07-19T15:33:25.801Z,39.50
2018-07-19T15:35:55.143Z,38.90
2018-07-19T15:38:24.512Z,38.20
2018-07-19T15:40:53.874Z,38.10
2018-07-19T15:43:23.201Z,39.20
2018-07-19T15:45:52.591Z,39.70
2018-07-19T15:48:21.965Z,39.70
2018-07-19T15:50:51.312Z,39.00
2018-07-19T15:53:20.919Z,39.20
2018-07-19T15:55:50.424Z,39.10
2018-07-19T15:58:19.877Z,39.30
2018-07-19T16:00:49.295Z,39.10
2018-07-19T16:03:18.656Z,38.90
2018-07-19T16:05:48.232Z,38.90
2018-07-19T16:08:17.618Z,38.80
2018-07-19T16:10:46.945Z,37.60
2018-07-19T16:13:16.236Z,38.30
2018-07-19T16:15:45.643Z,39.10
2018-07-19T16:18:15.112Z,39.50
2018-07-19T16:20:44.862Z,39.50
2018-07-19T16:23:14.280Z,39.10
2018-07-19T16:25:43.651Z,38.00
2018-07-19T16:28:13.024Z,38.00
2018-07-19T16:30:42.530Z,38.00
2018-07-19T16:33:11.860Z,37.10
2018-07-19T16:35:41.173Z,36.60
2018-07-19T16:38:10.710Z,36.00
2018-07-19T16:40:41.162Z,35.30
2018-07-19T16:43:10.548Z,34.20
2018-07-19T16:45:39.917Z,33.40
2018-07-19T16:48:09.203Z,33.30
2018-07-19T16:50:38.580Z,33.00
2018-07-19T16:53:07.973Z,32.30
2018-07-19T16:55:37.375Z,31.90
2018-07-19T16:58:06.785Z,31.60
2018-07-19T17:00:36.204Z,31.40
2018-07-19T17:03:05.598Z,31.20
2018-07-19T17:05:34.985Z,30.80
2018-07-19T17:08:04.407Z,30.70
2018-07-19T17:10:33.974Z,30.40
2018-07-19T17:13:03.298Z,30.00
2018-07-19T17:15:32.709Z,29.90
2018-07-19T17:18:02.040Z,29.90
2018-07-19T17:20:31.515Z,29.80
2018-07-19T17:23:00.879Z,29.90
2018-07-19T17:25:30.222Z,30.00
2018-07-19T17:27:59.613Z,29.80
2018-07-19T17:30:29.005Z,29.70
2018-07-19T17:32:58.334Z,29.50
2018-07-19T17:35:27.728Z,29.40
2018-07-19T17:37:57.032Z,29.00
2018-07-19T17:40:26.608Z,28.90
2018-07-19T17:42:56.275Z,28.80
2018-07-19T17:45:25.599Z,28.80
2018-07-19T17:47:55.003Z,28.70
2018-07-19T17:50:24.460Z,28.50
2018-07-19T17:52:53.805Z,28.50
2018-07-19T17:55:23.205Z,28.30
2018-07-19T17:57:52.932Z,28.30
2018-07-19T18:00:22.384Z,28.10
2018-07-19T18:02:51.726Z,28.00
2018-07-19T18:05:21.103Z,28.00
2018-07-19T18:10:20.483Z,27.90
2018-07-19T18:12:50.576Z,27.80
2018-07-19T18:15:20.762Z,27.60
2018-07-19T18:17:50.948Z,27.50
2018-07-19T18:20:21.231Z,27.40
2018-07-19T18:22:51.881Z,27.20
2018-07-19T18:25:21.179Z,27.10
2018-07-19T18:27:50.608Z,27.10
2018-07-19T18:30:36.429Z,26.90
2018-07-19T18:33:22.970Z,26.80
2018-07-19T18:36:06.706Z,26.60
2018-07-19T18:38:54.923Z,26.30
2018-07-19T18:41:44.809Z,26.20
2018-07-19T18:44:31.278Z,26.20
2018-07-19T18:47:01.557Z,26.00
2018-07-19T18:49:31.764Z,25.80
2018-07-19T18:52:02.813Z,25.80
2018-07-19T18:54:33.021Z,25.70
2018-07-19T18:57:03.079Z,25.70
2018-07-19T18:59:32.843Z,25.50
2018-07-19T19:02:03.326Z,25.40
2018-07-19T19:04:33.530Z,25.30
2018-07-19T19:07:04.479Z,25.20
2018-07-19T19:09:34.744Z,25.20
2018-07-19T19:12:04.852Z,25.10
2018-07-19T19:14:35.331Z,25.00
2018-07-19T19:17:06.933Z,25.00
2018-07-19T19:19:40.298Z,25.00
2018-07-19T19:22:09.802Z,25.00
2018-07-19T19:24:39.193Z,24.90
2018-07-19T19:27:08.601Z,24.90
2018-07-19T19:29:38.036Z,24.80
2018-07-19T19:32:07.631Z,24.80
2018-07-19T19:34:36.995Z,24.70
2018-07-19T19:37:06.362Z,24.70
2018-07-19T19:39:35.752Z,24.60
2018-07-19T19:42:05.148Z,24.50
2018-07-19T19:44:34.484Z,24.30
2018-07-19T19:47:03.930Z,24.10
2018-07-19T19:49:33.524Z,23.90
2018-07-19T19:52:02.894Z,23.60
2018-07-19T19:54:32.289Z,23.50
2018-07-19T19:57:01.644Z,23.40
2018-07-19T19:59:31.094Z,23.30
2018-07-19T20:02:00.462Z,23.30
2018-07-19T20:04:29.892Z,23.20
2018-07-19T20:06:59.217Z,23.20
2018-07-19T20:09:29.014Z,23.10
2018-07-19T20:11:58.378Z,23.10
2018-07-19T20:14:27.676Z,23.20
2018-07-19T20:16:57.060Z,23.10
2018-07-19T20:19:26.526Z,23.20
2018-07-19T20:21:55.917Z,23.00
2018-07-19T20:24:25.254Z,22.80
2018-07-19T20:26:54.499Z,22.80
2018-07-19T20:29:23.828Z,22.80
2018-07-19T20:31:53.123Z,22.70
2018-07-19T20:34:22.365Z,22.80
2018-07-19T20:36:51.868Z,22.70
2018-07-19T20:39:21.195Z,22.60
2018-07-19T20:41:50.437Z,22.50
2018-07-19T20:44:19.928Z,22.50
2018-07-19T20:46:49.183Z,22.60
2018-07-19T20:49:18.509Z,22.60
2018-07-19T20:51:47.806Z,22.50
2018-07-19T20:54:17.100Z,22.40
2018-07-19T20:56:46.307Z,22.40
2018-07-19T20:59:15.604Z,22.40
2018-07-19T21:01:44.825Z,22.40
2018-07-19T21:04:14.172Z,22.30
2018-07-19T21:06:43.404Z,22.20
2018-07-19T21:09:12.912Z,22.20
2018-07-19T21:11:42.110Z,22.30
2018-07-19T21:14:11.817Z,22.20
2018-07-19T21:16:41.423Z,22.00
2018-07-19T21:19:10.702Z,21.90
2018-07-19T21:21:39.952Z,22.00
2018-07-19T21:24:09.291Z,21.90
2018-07-19T21:26:38.548Z,21.90
2018-07-19T21:29:07.794Z,21.80
2018-07-19T21:31:37.064Z,21.90
2018-07-19T21:34:06.293Z,21.80
2018-07-19T21:36:35.540Z,21.70
2018-07-19T21:39:06.996Z,21.80
2018-07-19T21:41:36.239Z,21.80
2018-07-19T21:44:05.568Z,21.70
2018-07-19T21:46:34.768Z,21.70
2018-07-19T21:49:04.580Z,21.60
2018-07-19T21:51:33.813Z,21.50
2018-07-19T21:54:03.052Z,21.40
2018-07-19T21:56:32.353Z,21.30
2018-07-19T21:59:01.715Z,21.20
2018-07-19T22:01:30.949Z,21.30
2018-07-19T22:04:00.181Z,21.30
2018-07-19T22:06:29.449Z,21.30
2018-07-19T22:08:58.680Z,21.30
2018-07-19T22:11:28.157Z,21.30
2018-07-19T22:13:57.374Z,21.30
2018-07-19T22:16:26.604Z,21.40
2018-07-19T22:18:55.844Z,21.30
2018-07-19T22:21:25.078Z,21.20
2018-07-19T22:23:54.344Z,21.30
2018-07-19T22:26:23.590Z,21.40
2018-07-19T22:28:53.355Z,21.30
2018-07-19T22:31:22.624Z,21.30
2018-07-19T22:33:51.913Z,21.20
2018-07-19T22:36:21.188Z,21.30
2018-07-19T22:38:50.485Z,21.40
2018-07-19T22:41:19.707Z,21.20
2018-07-19T22:43:49.016Z,21.00
2018-07-19T22:46:18.240Z,21.00
2018-07-19T22:48:47.792Z,21.00
2018-07-19T22:51:17.300Z,21.10
2018-07-19T22:53:46.516Z,21.20
2018-07-19T22:56:15.723Z,21.10
2018-07-19T22:58:45.012Z,21.10
2018-07-19T23:01:14.317Z,21.00
2018-07-19T23:03:43.593Z,21.10
2018-07-19T23:06:12.858Z,21.10
2018-07-19T23:08:42.164Z,21.00
2018-07-19T23:11:11.420Z,20.90
2018-07-19T23:13:40.647Z,20.90
2018-07-19T23:16:10.986Z,20.80
2018-07-19T23:18:40.322Z,20.80
2018-07-19T23:21:09.545Z,20.80
2018-07-19T23:23:38.784Z,20.60
2018-07-19T23:26:08.036Z,20.60
2018-07-19T23:28:37.421Z,20.50
2018-07-19T23:31:06.816Z,20.40
2018-07-19T23:33:36.211Z,20.40
2018-07-19T23:36:09.620Z,20.30
2018-07-19T23:38:43.528Z,20.40
2018-07-19T23:41:16.512Z,20.40
2018-07-19T23:43:48.988Z,20.40
2018-07-19T23:46:19.900Z,20.30
2018-07-19T23:48:49.303Z,20.30
2018-07-19T23:51:18.519Z,20.20
2018-07-19T23:53:47.723Z,20.30
2018-07-19T23:56:16.947Z,20.30
2018-07-19T23:58:47.216Z,20.20
